Samos, Greece
Current Conditions -  °F | °C
As of 12:50 PM on Thursday 23 Oct 2014 (Local Time) from LGSM Reporting Station
Broken Clouds Broken Clouds  
Wind Chill: 73°   Ceiling: 8000
Heat Index: 73°   Visibility: 6mi
Dew Point: 59°   Wind: 21mph
Humidity: 61%   Direction: 160°SSE
Pressure: 29.71"   Gusts: NA
Location:  37.76°N, 26.98°E
Report Text: LGSM 230950Z 16018KT 9999 FEW018TCU SCT025 BKN080 23/15 Q1006
Loading
Personal Weather Stations






























Interactive Weather Map New forecast layout! Learn more

10-Day Weather Forecast

Advertisements
Track Severe Weather on mobile